createdAt,value
2023-05-25T00:00:28.502Z,82.23
2023-05-25T00:03:07.890Z,84.40
2023-05-25T00:05:42.997Z,70.97
2023-05-25T00:08:23.954Z,76.43
2023-05-25T00:11:04.062Z,74.63
2023-05-25T00:13:38.471Z,79.53
2023-05-25T00:16:15.924Z,80.90
2023-05-25T00:18:54.416Z,85.50
2023-05-25T00:21:31.669Z,78.83
2023-05-25T00:24:06.280Z,76.50
2023-05-25T00:26:45.564Z,77.73
2023-05-25T00:29:20.944Z,87.17
2023-05-25T00:31:56.557Z,84.87
2023-05-25T00:34:34.475Z,80.67
2023-05-25T00:37:14.104Z,88.73
2023-05-25T00:39:49.972Z,91.30
2023-05-25T00:42:31.615Z,97.50
2023-05-25T00:45:07.953Z,94.33
2023-05-25T00:47:45.630Z,93.73
2023-05-25T00:50:23.517Z,89.17
2023-05-25T00:53:03.014Z,99.93
2023-05-25T00:55:45.716Z,95.50
2023-05-25T00:58:27.409Z,104.43
2023-05-25T01:01:06.734Z,95.87
2023-05-25T01:03:43.742Z,88.07
2023-05-25T01:06:22.653Z,98.67
2023-05-25T01:09:03.500Z,98.93
2023-05-25T01:11:42.715Z,94.00
2023-05-25T01:14:27.856Z,99.30
2023-05-25T01:17:06.812Z,97.10
2023-05-25T01:19:54.771Z,108.07
2023-05-25T01:22:46.873Z,105.27
2023-05-25T01:25:30.290Z,127.57
2023-05-25T01:28:17.046Z,117.67
2023-05-25T01:30:57.596Z,123.90
2023-05-25T01:33:36.725Z,118.67
2023-05-25T01:36:14.524Z,126.27
2023-05-25T01:39:02.189Z,118.73
2023-05-25T01:41:39.111Z,125.93
2023-05-25T01:44:18.531Z,125.23
2023-05-25T01:47:02.353Z,122.53
2023-05-25T01:49:54.666Z,124.93
2023-05-25T01:52:38.245Z,127.60
2023-05-25T01:55:25.356Z,141.00
2023-05-25T01:58:05.213Z,127.03
2023-05-25T02:00:45.938Z,135.80
2023-05-25T02:03:22.071Z,123.40
2023-05-25T02:05:59.387Z,129.80
2023-05-25T02:08:37.558Z,129.77
2023-05-25T02:11:19.407Z,123.20
2023-05-25T02:13:57.755Z,125.23
2023-05-25T02:16:35.925Z,125.13
2023-05-25T02:19:14.515Z,122.53
2023-05-25T02:21:51.003Z,112.23
2023-05-25T02:24:29.460Z,110.27
2023-05-25T02:27:16.591Z,113.50
2023-05-25T02:29:55.955Z,119.53
2023-05-25T02:32:35.937Z,115.67
2023-05-25T02:35:16.043Z,107.87
2023-05-25T02:37:55.086Z,104.63
2023-05-25T02:40:34.520Z,101.80
2023-05-25T02:43:15.227Z,96.80
2023-05-25T02:45:55.233Z,107.33
2023-05-25T02:48:44.124Z,109.93
2023-05-25T02:51:20.514Z,100.13
2023-05-25T02:53:58.743Z,95.40
2023-05-25T02:56:35.207Z,105.17
2023-05-25T02:59:17.230Z,106.87
2023-05-25T03:01:53.660Z,96.93
2023-05-25T03:04:38.245Z,108.13
2023-05-25T03:07:15.634Z,95.23
2023-05-25T03:09:53.848Z,94.53
2023-05-25T03:12:31.782Z,101.67
2023-05-25T03:15:15.095Z,100.97
2023-05-25T03:17:51.638Z,98.43
2023-05-25T03:20:29.012Z,93.37
2023-05-25T03:23:04.702Z,92.87
2023-05-25T03:25:46.188Z,94.83
2023-05-25T03:28:23.764Z,88.60
2023-05-25T03:31:07.782Z,89.97
2023-05-25T03:33:48.129Z,93.37
2023-05-25T03:36:28.795Z,99.00
2023-05-25T03:39:12.591Z,86.80
2023-05-25T03:41:48.343Z,91.43
2023-05-25T03:44:28.419Z,82.50
2023-05-25T03:47:12.575Z,86.53
2023-05-25T03:49:47.806Z,95.43
2023-05-25T03:52:24.335Z,87.97
2023-05-25T03:55:00.368Z,91.63
2023-05-25T03:57:39.303Z,88.30
2023-05-25T04:00:15.561Z,81.27
2023-05-25T04:02:54.058Z,83.43
2023-05-25T04:05:30.507Z,92.17
2023-05-25T04:08:05.822Z,86.10
2023-05-25T04:10:44.983Z,92.20
2023-05-25T04:13:22.538Z,91.27
2023-05-25T04:16:00.977Z,80.70
2023-05-25T04:18:47.156Z,81.13
2023-05-25T04:21:25.519Z,76.90
2023-05-25T04:24:12.568Z,74.83
2023-05-25T04:26:51.709Z,82.83
2023-05-25T04:29:33.788Z,81.33
2023-05-25T04:32:34.169Z,91.37
2023-05-25T04:35:36.521Z,83.23
2023-05-25T04:38:20.310Z,93.70
2023-05-25T04:41:00.862Z,80.63
2023-05-25T04:43:52.626Z,76.10
2023-05-25T04:46:40.948Z,75.10
2023-05-25T04:49:23.067Z,82.17
2023-05-25T04:52:04.007Z,74.73
2023-05-25T04:54:48.909Z,80.13
2023-05-25T04:57:44.145Z,78.00
2023-05-25T05:00:33.276Z,75.40
2023-05-25T05:03:54.923Z,69.43
2023-05-25T05:06:53.160Z,64.17
2023-05-25T05:09:45.986Z,63.43
2023-05-25T05:12:41.538Z,61.17
2023-05-25T05:15:19.991Z,70.07
2023-05-25T05:17:58.056Z,62.93
2023-05-25T05:20:38.444Z,56.83
2023-05-25T05:23:17.178Z,63.57
2023-05-25T05:26:04.692Z,68.77
2023-05-25T05:28:42.242Z,75.00
2023-05-25T05:31:22.196Z,65.67
2023-05-25T05:34:01.014Z,56.50
2023-05-25T05:36:45.278Z,60.30
2023-05-25T05:39:30.870Z,59.07
2023-05-25T05:42:13.025Z,64.27
2023-05-25T05:44:51.912Z,59.40
2023-05-25T05:47:34.342Z,61.93
2023-05-25T05:50:12.126Z,68.20
2023-05-25T05:52:52.041Z,73.70
2023-05-25T05:55:30.718Z,62.97
2023-05-25T05:58:20.208Z,75.70
2023-05-25T06:01:05.843Z,70.80
2023-05-25T06:03:43.729Z,66.27
2023-05-25T06:06:21.823Z,76.47
2023-05-25T06:08:59.060Z,73.90
2023-05-25T06:11:36.833Z,67.80
2023-05-25T06:14:17.149Z,67.17
2023-05-25T06:16:54.549Z,74.53
2023-05-25T06:19:32.636Z,67.37
2023-05-25T06:22:12.420Z,65.20
2023-05-25T06:24:49.713Z,72.83
2023-05-25T06:27:25.265Z,68.90
2023-05-25T06:30:05.458Z,67.63
2023-05-25T06:32:46.021Z,62.70
2023-05-25T06:35:21.682Z,69.80
2023-05-25T06:37:58.891Z,64.55
2023-05-25T06:40:36.958Z,69.70
2023-05-25T06:43:17.667Z,63.90
2023-05-25T06:46:21.417Z,68.30
2023-05-25T06:49:00.567Z,67.97
2023-05-25T06:51:41.737Z,71.63
2023-05-25T06:54:16.706Z,60.40
2023-05-25T06:56:54.600Z,71.27
2023-05-25T06:59:39.030Z,67.97
2023-05-25T07:02:20.743Z,67.50
2023-05-25T07:04:58.565Z,64.70
2023-05-25T07:07:35.905Z,64.10
2023-05-25T07:10:24.852Z,69.40
2023-05-25T07:13:06.390Z,69.13
2023-05-25T07:15:46.736Z,72.87
2023-05-25T07:18:27.642Z,72.90
2023-05-25T07:21:05.370Z,69.70
2023-05-25T07:23:43.870Z,69.97
2023-05-25T07:26:27.428Z,66.87
2023-05-25T07:29:04.629Z,71.77
2023-05-25T07:31:40.692Z,71.23
2023-05-25T07:34:21.376Z,71.67
2023-05-25T07:37:02.236Z,72.67
2023-05-25T07:39:41.194Z,67.37
2023-05-25T07:42:22.988Z,77.23
2023-05-25T07:44:58.587Z,75.13
2023-05-25T07:47:37.149Z,68.43
2023-05-25T07:50:20.336Z,82.27
2023-05-25T07:53:06.501Z,77.50
2023-05-25T07:55:47.242Z,83.17
2023-05-25T07:58:28.370Z,91.57
2023-05-25T08:01:16.482Z,85.50
2023-05-25T08:03:58.337Z,73.77
2023-05-25T08:06:44.274Z,72.40
2023-05-25T08:09:25.637Z,75.77
2023-05-25T08:12:24.074Z,79.10
2023-05-25T08:15:13.188Z,73.93
2023-05-25T08:17:54.431Z,78.63
2023-05-25T08:20:33.827Z,74.97
2023-05-25T08:23:19.896Z,80.20
2023-05-25T08:25:57.517Z,79.50
2023-05-25T08:28:36.251Z,86.70
2023-05-25T08:31:15.536Z,80.93
2023-05-25T08:33:53.559Z,74.67
2023-05-25T08:36:42.917Z,83.63
2023-05-25T08:39:26.784Z,75.37
2023-05-25T08:42:03.749Z,74.80
2023-05-25T08:44:41.786Z,79.93
2023-05-25T08:47:23.106Z,68.40
2023-05-25T08:50:03.198Z,72.90
2023-05-25T08:52:42.047Z,70.97
2023-05-25T08:55:29.231Z,75.27
2023-05-25T08:58:12.683Z,76.43
2023-05-25T09:00:57.624Z,64.67
2023-05-25T09:03:35.804Z,65.00
2023-05-25T09:06:13.919Z,62.80
2023-05-25T09:08:55.311Z,63.33
2023-05-25T09:12:05.293Z,68.23
2023-05-25T09:14:49.110Z,67.67
2023-05-25T09:18:05.892Z,44.93
2023-05-25T09:21:24.377Z,44.43
2023-05-25T09:24:08.332Z,42.70
2023-05-25T09:26:50.736Z,38.63
2023-05-25T09:29:27.230Z,43.33
2023-05-25T09:32:08.289Z,44.83
2023-05-25T09:34:52.953Z,44.57
2023-05-25T09:37:30.025Z,40.03
2023-05-25T09:40:05.702Z,46.90
2023-05-25T09:42:47.952Z,40.97
2023-05-25T09:45:25.991Z,46.27
2023-05-25T09:48:07.162Z,40.20
2023-05-25T09:50:49.844Z,40.57
2023-05-25T09:53:30.879Z,35.40
2023-05-25T09:56:12.304Z,34.17
2023-05-25T09:59:28.102Z,34.23
2023-05-25T10:02:26.920Z,36.13
2023-05-25T10:05:25.965Z,39.03
2023-05-25T10:08:25.207Z,30.50
2023-05-25T10:11:23.232Z,34.03
2023-05-25T10:14:11.913Z,29.17
2023-05-25T10:16:52.161Z,31.50
2023-05-25T10:19:35.815Z,33.17
2023-05-25T10:22:22.208Z,26.77
2023-05-25T10:25:06.975Z,26.70
2023-05-25T10:28:01.221Z,30.57
2023-05-25T10:30:47.700Z,36.50
2023-05-25T10:33:27.658Z,30.13
2023-05-25T10:36:11.542Z,26.70
2023-05-25T10:38:47.907Z,26.67
2023-05-25T10:41:29.879Z,34.80
2023-05-25T10:44:08.688Z,25.50
2023-05-25T10:46:48.455Z,27.77
2023-05-25T10:49:47.319Z,24.90
2023-05-25T10:52:30.416Z,32.53
2023-05-25T10:55:13.870Z,31.50
2023-05-25T10:57:56.352Z,30.13
2023-05-25T11:00:39.928Z,27.93
2023-05-25T11:03:22.820Z,29.43
2023-05-25T11:05:59.672Z,47.30
2023-05-25T11:08:59.277Z,50.17
2023-05-25T11:12:11.820Z,58.90
2023-05-25T11:14:51.010Z,58.80
2023-05-25T11:17:34.119Z,68.03
2023-05-25T11:20:49.324Z,67.20
2023-05-25T11:23:44.218Z,67.17
2023-05-25T11:26:35.696Z,72.37
2023-05-25T11:29:29.626Z,78.23
2023-05-25T11:32:10.010Z,71.60
2023-05-25T11:34:56.942Z,73.30
2023-05-25T11:37:48.176Z,81.07
2023-05-25T11:40:33.324Z,72.23
2023-05-25T11:43:22.160Z,81.90
2023-05-25T11:46:16.018Z,77.33
2023-05-25T11:49:01.649Z,67.10
2023-05-25T11:51:42.790Z,70.07
2023-05-25T11:54:29.019Z,57.67
2023-05-25T11:57:08.059Z,49.60
2023-05-25T11:59:49.317Z,57.97
2023-05-25T12:02:35.141Z,58.93
2023-05-25T12:05:14.049Z,53.17
2023-05-25T12:07:56.155Z,54.37
2023-05-25T12:10:36.435Z,48.27
2023-05-25T12:13:16.615Z,55.83
2023-05-25T12:15:54.160Z,57.60
2023-05-25T12:18:32.946Z,48.30
2023-05-25T12:21:18.163Z,41.93
2023-05-25T12:24:01.147Z,44.23
2023-05-25T12:27:02.259Z,52.77
2023-05-25T12:29:40.901Z,56.93
2023-05-25T12:32:19.556Z,62.77
2023-05-25T12:35:02.924Z,65.70
2023-05-25T12:37:48.375Z,70.23
2023-05-25T12:40:33.418Z,62.97
2023-05-25T12:43:21.886Z,60.63
2023-05-25T12:46:00.237Z,65.77
2023-05-25T12:48:48.830Z,76.93
2023-05-25T12:51:30.372Z,73.40
2023-05-25T12:54:12.592Z,68.43
2023-05-25T12:57:08.278Z,68.60
2023-05-25T12:59:50.870Z,67.07
2023-05-25T13:02:29.909Z,64.83
2023-05-25T13:05:30.531Z,68.83
2023-05-25T13:08:12.400Z,64.67
2023-05-25T13:10:57.197Z,67.47
2023-05-25T13:13:51.342Z,64.97
2023-05-25T13:16:58.404Z,62.10
2023-05-25T13:19:39.659Z,58.37
2023-05-25T13:22:30.390Z,68.17
2023-05-25T13:25:18.574Z,74.43
2023-05-25T13:28:12.686Z,76.93
2023-05-25T13:30:55.424Z,73.27
2023-05-25T13:34:10.748Z,67.17
2023-05-25T13:36:56.869Z,66.33
2023-05-25T13:39:41.905Z,64.80
2023-05-25T13:42:26.174Z,69.33
2023-05-25T13:45:18.192Z,63.40
2023-05-25T13:48:09.172Z,62.10
2023-05-25T13:50:50.009Z,68.07
2023-05-25T13:53:30.546Z,60.77
2023-05-25T13:56:19.369Z,64.30
2023-05-25T13:59:12.817Z,67.70
2023-05-25T14:01:59.552Z,68.43
2023-05-25T14:04:43.928Z,73.47
2023-05-25T14:07:24.290Z,69.30
2023-05-25T14:10:10.252Z,80.23
2023-05-25T14:13:02.861Z,71.07
2023-05-25T14:15:46.741Z,66.30
2023-05-25T14:18:32.000Z,77.23
2023-05-25T14:21:27.834Z,72.33
2023-05-25T14:24:09.512Z,70.93
2023-05-25T14:27:01.593Z,75.00
2023-05-25T14:29:52.157Z,64.63
2023-05-25T14:32:41.755Z,70.87
2023-05-25T14:35:20.648Z,64.93
2023-05-25T14:38:09.151Z,57.70
2023-05-25T14:40:51.151Z,60.00
2023-05-25T14:43:37.720Z,59.63
2023-05-25T14:46:26.216Z,61.73
2023-05-25T14:49:05.175Z,67.47
2023-05-25T14:51:50.736Z,59.60
2023-05-25T14:54:35.927Z,64.37
2023-05-25T14:57:23.919Z,64.37
2023-05-25T15:00:23.656Z,71.63
2023-05-25T15:03:24.139Z,63.20
2023-05-25T15:06:18.702Z,70.53
2023-05-25T15:09:01.865Z,73.13
2023-05-25T15:12:01.664Z,68.30
2023-05-25T15:14:51.171Z,66.73
2023-05-25T15:17:37.012Z,67.13
2023-05-25T15:20:19.793Z,71.23
2023-05-25T15:23:07.658Z,72.40
2023-05-25T15:25:52.113Z,69.07
2023-05-25T15:28:41.492Z,69.93
2023-05-25T15:31:24.152Z,66.17
2023-05-25T15:34:12.568Z,63.50
2023-05-25T15:37:05.219Z,67.77
2023-05-25T15:39:47.068Z,74.83
2023-05-25T15:42:40.417Z,68.50
2023-05-25T15:45:23.968Z,69.77
2023-05-25T15:48:05.768Z,74.60
2023-05-25T15:50:51.389Z,65.77
2023-05-25T15:53:32.364Z,71.57
2023-05-25T15:56:16.530Z,73.93
2023-05-25T15:59:03.525Z,72.87
2023-05-25T16:02:09.994Z,73.97
2023-05-25T16:04:56.030Z,69.97
2023-05-25T16:07:50.702Z,79.47
2023-05-25T16:10:31.111Z,77.93
2023-05-25T16:13:22.109Z,79.90
2023-05-25T16:16:07.488Z,73.83
2023-05-25T16:18:44.272Z,72.57
2023-05-25T16:21:22.923Z,79.97
2023-05-25T16:24:14.304Z,82.70
2023-05-25T16:26:57.760Z,66.10
2023-05-25T16:29:34.473Z,73.33
2023-05-25T16:32:13.796Z,68.30
2023-05-25T16:34:54.052Z,83.03
2023-05-25T16:37:34.978Z,75.83
2023-05-25T16:40:19.014Z,72.40
2023-05-25T16:42:59.321Z,67.07
2023-05-25T16:45:44.637Z,66.37
2023-05-25T16:48:25.991Z,72.47
2023-05-25T16:51:18.260Z,66.33
2023-05-25T16:53:55.823Z,69.13
2023-05-25T16:56:39.678Z,65.80
2023-05-25T16:59:23.950Z,68.20
2023-05-25T17:02:04.525Z,76.33
2023-05-25T17:04:45.662Z,68.83
2023-05-25T17:07:23.302Z,66.60
2023-05-25T17:10:01.484Z,69.63
2023-05-25T17:12:40.412Z,68.23
2023-05-25T17:15:20.799Z,62.80
2023-05-25T17:18:01.960Z,71.27
2023-05-25T17:20:39.823Z,60.50
2023-05-25T17:23:18.323Z,62.43
2023-05-25T17:25:56.825Z,62.13
2023-05-25T17:28:44.145Z,58.90
2023-05-25T17:31:22.251Z,59.50
2023-05-25T17:33:59.185Z,64.47
2023-05-25T17:36:38.873Z,63.73
2023-05-25T17:39:16.209Z,61.97
2023-05-25T17:41:54.948Z,65.23
2023-05-25T17:44:37.227Z,63.67
2023-05-25T17:47:13.691Z,66.70
2023-05-25T17:49:51.872Z,63.43
2023-05-25T17:52:29.914Z,69.47
2023-05-25T17:55:09.287Z,64.03
2023-05-25T17:57:47.377Z,62.90
2023-05-25T18:00:27.587Z,60.40
2023-05-25T18:03:05.664Z,63.93
2023-05-25T18:05:40.813Z,62.97
2023-05-25T18:08:16.529Z,59.03
2023-05-25T18:10:54.467Z,62.03
2023-05-25T18:13:35.071Z,62.50
2023-05-25T18:16:15.148Z,60.10
2023-05-25T18:19:00.174Z,59.90
2023-05-25T18:21:37.492Z,62.90
2023-05-25T18:24:14.428Z,62.87
2023-05-25T18:26:54.212Z,61.40
2023-05-25T18:29:35.862Z,63.60
2023-05-25T18:32:14.586Z,61.13
2023-05-25T18:34:49.613Z,56.57
2023-05-25T18:37:30.966Z,67.37
2023-05-25T18:40:07.866Z,65.13
2023-05-25T18:42:44.304Z,66.97
2023-05-25T18:45:24.166Z,67.47
2023-05-25T18:48:10.996Z,69.83
2023-05-25T18:50:46.436Z,77.13
2023-05-25T18:53:23.325Z,74.50
2023-05-25T18:56:01.121Z,63.77
2023-05-25T18:58:37.799Z,70.80
2023-05-25T19:01:12.164Z,75.27
2023-05-25T19:03:49.885Z,68.40
2023-05-25T19:06:27.389Z,77.27
2023-05-25T19:09:05.473Z,69.27
2023-05-25T19:11:42.362Z,77.30
2023-05-25T19:14:16.926Z,71.57
2023-05-25T19:16:50.318Z,64.90
2023-05-25T19:19:26.561Z,68.67
2023-05-25T19:22:01.081Z,67.70
2023-05-25T19:24:36.676Z,68.77
2023-05-25T19:27:11.796Z,60.73
2023-05-25T19:29:47.606Z,68.13
2023-05-25T19:32:24.324Z,75.60
2023-05-25T19:35:02.300Z,69.53
2023-05-25T19:37:36.622Z,65.17
2023-05-25T19:40:10.414Z,64.20
2023-05-25T19:42:46.802Z,69.33
2023-05-25T19:45:21.510Z,60.27
2023-05-25T19:47:56.635Z,62.13
2023-05-25T19:50:32.149Z,67.93
2023-05-25T19:53:08.308Z,66.90
2023-05-25T19:55:44.536Z,69.67
2023-05-25T19:58:20.898Z,62.30
2023-05-25T20:00:54.813Z,64.07
2023-05-25T20:03:30.236Z,65.00
2023-05-25T20:06:08.901Z,64.57
2023-05-25T20:08:42.835Z,60.90
2023-05-25T20:11:17.088Z,59.90
2023-05-25T20:13:52.297Z,64.87
2023-05-25T20:16:27.093Z,63.73
2023-05-25T20:19:05.126Z,61.70
2023-05-25T20:21:42.102Z,63.07
2023-05-25T20:24:17.148Z,68.73
2023-05-25T20:26:52.018Z,64.83
2023-05-25T20:29:27.194Z,69.50
2023-05-25T20:32:03.346Z,60.47
2023-05-25T20:34:38.741Z,63.47
2023-05-25T20:37:16.376Z,57.50
2023-05-25T20:39:50.819Z,60.13
2023-05-25T20:42:25.190Z,64.00
2023-05-25T20:45:01.103Z,56.27
2023-05-25T20:47:34.800Z,59.43
2023-05-25T20:50:09.934Z,70.70
2023-05-25T20:52:47.555Z,68.93
2023-05-25T20:55:23.718Z,71.00
2023-05-25T20:57:58.481Z,67.33
2023-05-25T21:00:31.644Z,60.80
2023-05-25T21:03:06.351Z,62.27
2023-05-25T21:05:39.769Z,67.43
2023-05-25T21:08:16.563Z,63.13
2023-05-25T21:10:51.162Z,62.37
2023-05-25T21:13:25.863Z,54.63
2023-05-25T21:16:00.704Z,67.10
2023-05-25T21:18:35.055Z,61.93
2023-05-25T21:21:09.264Z,66.87
2023-05-25T21:23:45.393Z,60.60
2023-05-25T21:26:21.225Z,63.30
2023-05-25T21:28:56.522Z,64.63
2023-05-25T21:31:31.036Z,65.90
2023-05-25T21:34:05.499Z,62.83
2023-05-25T21:36:40.652Z,66.17
2023-05-25T21:39:17.918Z,62.73
2023-05-25T21:41:52.354Z,56.50
2023-05-25T21:44:28.395Z,66.00
2023-05-25T21:47:06.244Z,57.50
2023-05-25T21:49:42.220Z,61.93
2023-05-25T21:52:26.625Z,61.33
2023-05-25T21:55:04.077Z,62.90
2023-05-25T21:57:38.471Z,61.33
2023-05-25T22:00:16.604Z,61.57
2023-05-25T22:02:52.162Z,60.70
2023-05-25T22:05:29.373Z,59.67
2023-05-25T22:08:07.388Z,65.90
2023-05-25T22:10:55.541Z,57.87
2023-05-25T22:13:29.630Z,63.30
2023-05-25T22:16:07.049Z,62.50
2023-05-25T22:18:44.146Z,75.07
2023-05-25T22:21:20.538Z,61.80
2023-05-25T22:23:57.526Z,60.13
2023-05-25T22:26:34.079Z,69.00
2023-05-25T22:29:13.090Z,67.27
2023-05-25T22:31:48.535Z,67.73
2023-05-25T22:34:24.147Z,67.90
2023-05-25T22:37:00.946Z,68.07
2023-05-25T22:39:36.694Z,73.73
2023-05-25T22:42:15.586Z,70.73
2023-05-25T22:44:52.769Z,66.67
2023-05-25T22:47:28.227Z,64.20
2023-05-25T22:50:07.442Z,66.03
2023-05-25T22:52:42.789Z,64.07
2023-05-25T22:55:21.862Z,64.30
2023-05-25T22:58:00.453Z,73.60
2023-05-25T23:00:35.176Z,60.57
2023-05-25T23:03:13.156Z,68.47
2023-05-25T23:05:47.996Z,64.03
2023-05-25T23:08:22.521Z,71.03
2023-05-25T23:10:59.604Z,66.53
2023-05-25T23:13:40.473Z,65.87
2023-05-25T23:16:16.806Z,59.50
2023-05-25T23:18:54.891Z,65.90
2023-05-25T23:21:30.403Z,71.60
2023-05-25T23:24:08.906Z,62.87
2023-05-25T23:26:45.341Z,59.60
2023-05-25T23:29:26.113Z,61.90
2023-05-25T23:32:06.344Z,62.73
2023-05-25T23:34:45.844Z,69.17
2023-05-25T23:37:20.781Z,66.07
2023-05-25T23:39:58.260Z,60.00
2023-05-25T23:42:41.641Z,58.37
2023-05-25T23:45:20.448Z,56.73
2023-05-25T23:47:58.547Z,56.67
2023-05-25T23:50:34.746Z,56.07
2023-05-25T23:53:12.983Z,62.77
2023-05-25T23:55:50.659Z,61.57
2023-05-25T23:58:26.368Z,58.70
